sensor_id;sensor_type;location;lat;lon;timestamp;pressure;altitude;pressure_sealevel;temperature;humidity
6524;BME280;3295;38.928;-77.052;2022-12-07T00:01:45;101582.56;;;12.77;100.00
6524;BME280;3295;38.928;-77.052;2022-12-07T00:04:16;101584.41;;;12.80;100.00
6524;BME280;3295;38.928;-77.052;2022-12-07T00:06:46;101585.91;;;12.76;100.00
6524;BME280;3295;38.928;-77.052;2022-12-07T00:09:17;101591.19;;;12.79;100.00
6524;BME280;3295;38.928;-77.052;2022-12-07T00:11:49;101591.19;;;12.79;100.00
6524;BME280;3295;38.928;-77.052;2022-12-07T00:14:18;101585.28;;;12.80;100.00
6524;BME280;3295;38.928;-77.052;2022-12-07T00:16:46;101588.88;;;12.84;100.00
6524;BME280;3295;38.928;-77.052;2022-12-07T00:19:17;101586.47;;;12.87;100.00
6524;BME280;3295;38.928;-77.052;2022-12-07T00:21:45;101590.88;;;12.90;100.00
6524;BME280;3295;38.928;-77.052;2022-12-07T00:24:13;101591.56;;;12.87;100.00
6524;BME280;3295;38.928;-77.052;2022-12-07T00:26:42;101586.38;;;12.86;100.00
6524;BME280;3295;38.928;-77.052;2022-12-07T00:29:14;101582.00;;;12.83;100.00
6524;BME280;3295;38.928;-77.052;2022-12-07T00:31:42;101585.56;;;12.87;100.00
6524;BME280;3295;38.928;-77.052;2022-12-07T00:34:13;101598.25;;;12.84;100.00
6524;BME280;3295;38.928;-77.052;2022-12-07T00:36:43;101600.81;;;12.84;100.00
6524;BME280;3295;38.928;-77.052;2022-12-07T00:39:11;101602.63;;;12.86;100.00
6524;BME280;3295;38.928;-77.052;2022-12-07T00:41:39;101607.03;;;12.89;100.00
6524;BME280;3295;38.928;-77.052;2022-12-07T00:44:07;101604.53;;;12.90;100.00
6524;BME280;3295;38.928;-77.052;2022-12-07T00:46:34;101612.81;;;12.85;100.00
6524;BME280;3295;38.928;-77.052;2022-12-07T00:49:03;101606.31;;;12.75;100.00
6524;BME280;3295;38.928;-77.052;2022-12-07T00:51:30;101596.47;;;12.82;100.00
6524;BME280;3295;38.928;-77.052;2022-12-07T00:54:00;101594.06;;;12.86;100.00
6524;BME280;3295;38.928;-77.052;2022-12-07T00:56:29;101584.69;;;12.86;100.00
6524;BME280;3295;38.928;-77.052;2022-12-07T00:58:58;101575.03;;;12.80;100.00
6524;BME280;3295;38.928;-77.052;2022-12-07T01:01:27;101571.69;;;12.81;100.00
6524;BME280;3295;38.928;-77.052;2022-12-07T01:03:55;101571.25;;;12.74;100.00
6524;BME280;3295;38.928;-77.052;2022-12-07T01:06:24;101568.78;;;12.75;100.00
6524;BME280;3295;38.928;-77.052;2022-12-07T01:08:52;101555.53;;;12.82;100.00
6524;BME280;3295;38.928;-77.052;2022-12-07T01:11:23;101552.78;;;12.79;100.00
6524;BME280;3295;38.928;-77.052;2022-12-07T01:13:52;101560.47;;;12.79;100.00
6524;BME280;3295;38.928;-77.052;2022-12-07T01:16:22;101554.56;;;12.80;100.00
6524;BME280;3295;38.928;-77.052;2022-12-07T01:18:51;101559.75;;;12.82;100.00
6524;BME280;3295;38.928;-77.052;2022-12-07T01:21:21;101550.53;;;12.86;100.00
6524;BME280;3295;38.928;-77.052;2022-12-07T01:23:49;101552.16;;;12.84;100.00
6524;BME280;3295;38.928;-77.052;2022-12-07T01:26:19;101531.91;;;12.72;100.00
6524;BME280;3295;38.928;-77.052;2022-12-07T01:28:49;101545.13;;;12.79;100.00
6524;BME280;3295;38.928;-77.052;2022-12-07T01:31:19;101547.19;;;12.87;100.00
6524;BME280;3295;38.928;-77.052;2022-12-07T01:33:49;101539.56;;;12.88;100.00
6524;BME280;3295;38.928;-77.052;2022-12-07T01:36:20;101550.69;;;12.89;100.00
6524;BME280;3295;38.928;-77.052;2022-12-07T01:38:51;101564.00;;;12.81;100.00
6524;BME280;3295;38.928;-77.052;2022-12-07T01:41:20;101569.28;;;12.85;100.00
6524;BME280;3295;38.928;-77.052;2022-12-07T01:47:06;101563.59;;;12.90;100.00
6524;BME280;3295;38.928;-77.052;2022-12-07T01:49:38;101561.44;;;12.98;100.00
6524;BME280;3295;38.928;-77.052;2022-12-07T01:52:14;101548.38;;;12.93;100.00
6524;BME280;3295;38.928;-77.052;2022-12-07T01:54:49;101537.44;;;12.96;100.00
6524;BME280;3295;38.928;-77.052;2022-12-07T01:57:19;101522.19;;;12.99;100.00
6524;BME280;3295;38.928;-77.052;2022-12-07T01:59:49;101536.53;;;12.95;100.00
6524;BME280;3295;38.928;-77.052;2022-12-07T02:02:21;101533.63;;;13.05;100.00
6524;BME280;3295;38.928;-77.052;2022-12-07T02:04:53;101533.56;;;13.04;100.00
6524;BME280;3295;38.928;-77.052;2022-12-07T02:07:24;101542.28;;;13.07;100.00
6524;BME280;3295;38.928;-77.052;2022-12-07T02:09:52;101536.44;;;13.10;100.00
6524;BME280;3295;38.928;-77.052;2022-12-07T02:12:21;101543.66;;;13.17;100.00
6524;BME280;3295;38.928;-77.052;2022-12-07T02:14:50;101537.25;;;13.25;100.00
6524;BME280;3295;38.928;-77.052;2022-12-07T02:17:25;101543.44;;;13.30;100.00
6524;BME280;3295;38.928;-77.052;2022-12-07T02:20:23;101547.94;;;13.34;100.00
6524;BME280;3295;38.928;-77.052;2022-12-07T02:29:10;101544.84;;;13.41;100.00
6524;BME280;3295;38.928;-77.052;2022-12-07T02:31:44;101553.34;;;13.40;100.00
6524;BME280;3295;38.928;-77.052;2022-12-07T02:34:21;101555.34;;;13.46;100.00
6524;BME280;3295;38.928;-77.052;2022-12-07T02:36:54;101557.25;;;13.50;100.00
6524;BME280;3295;38.928;-77.052;2022-12-07T02:39:29;101557.47;;;13.55;100.00
6524;BME280;3295;38.928;-77.052;2022-12-07T02:42:02;101563.78;;;13.61;100.00
6524;BME280;3295;38.928;-77.052;2022-12-07T02:44:37;101561.38;;;13.64;100.00
6524;BME280;3295;38.928;-77.052;2022-12-07T02:47:09;101564.81;;;13.65;100.00
6524;BME280;3295;38.928;-77.052;2022-12-07T02:49:38;101554.41;;;13.62;100.00
6524;BME280;3295;38.928;-77.052;2022-12-07T02:52:07;101550.09;;;13.61;100.00
6524;BME280;3295;38.928;-77.052;2022-12-07T02:54:35;101560.09;;;13.56;100.00
6524;BME280;3295;38.928;-77.052;2022-12-07T02:57:12;101556.00;;;13.60;100.00
6524;BME280;3295;38.928;-77.052;2022-12-07T02:59:55;101549.28;;;13.62;100.00
6524;BME280;3295;38.928;-77.052;2022-12-07T03:02:35;101563.13;;;13.65;100.00
6524;BME280;3295;38.928;-77.052;2022-12-07T03:05:15;101564.81;;;13.65;100.00
6524;BME280;3295;38.928;-77.052;2022-12-07T03:07:58;101559.69;;;13.65;100.00
6524;BME280;3295;38.928;-77.052;2022-12-07T03:10:36;101550.72;;;13.57;100.00
6524;BME280;3295;38.928;-77.052;2022-12-07T03:13:15;101547.38;;;13.58;100.00
6524;BME280;3295;38.928;-77.052;2022-12-07T03:15:55;101550.09;;;13.61;100.00
6524;BME280;3295;38.928;-77.052;2022-12-07T03:18:30;101546.78;;;13.63;100.00
6524;BME280;3295;38.928;-77.052;2022-12-07T03:21:03;101546.78;;;13.63;100.00
6524;BME280;3295;38.928;-77.052;2022-12-07T03:23:35;101558.81;;;13.64;100.00
6524;BME280;3295;38.928;-77.052;2022-12-07T03:26:07;101547.78;;;13.67;100.00
6524;BME280;3295;38.928;-77.052;2022-12-07T03:28:39;101539.38;;;13.69;100.00
6524;BME280;3295;38.928;-77.052;2022-12-07T03:31:12;101538.56;;;13.70;100.00
6524;BME280;3295;38.928;-77.052;2022-12-07T03:33:49;101553.16;;;13.71;100.00
6524;BME280;3295;38.928;-77.052;2022-12-07T03:36:22;101544.59;;;13.71;100.00
6524;BME280;3295;38.928;-77.052;2022-12-07T03:38:57;101541.28;;;13.73;100.00
6524;BME280;3295;38.928;-77.052;2022-12-07T03:41:33;101542.25;;;13.75;100.00
6524;BME280;3295;38.928;-77.052;2022-12-07T03:44:04;101553.31;;;13.74;100.00
6524;BME280;3295;38.928;-77.052;2022-12-07T03:46:38;101550.31;;;13.65;100.00
6524;BME280;3295;38.928;-77.052;2022-12-07T03:49:21;101542.09;;;13.72;100.00
6524;BME280;3295;38.928;-77.052;2022-12-07T03:51:55;101550.75;;;13.74;100.00
6524;BME280;3295;38.928;-77.052;2022-12-07T03:54:27;101550.66;;;13.73;100.00
6524;BME280;3295;38.928;-77.052;2022-12-07T03:56:58;101549.28;;;13.79;100.00
6524;BME280;3295;38.928;-77.052;2022-12-07T03:59:29;101547.59;;;13.80;100.00
6524;BME280;3295;38.928;-77.052;2022-12-07T04:02:05;101548.53;;;13.82;100.00
6524;BME280;3295;38.928;-77.052;2022-12-07T04:04:33;101548.53;;;13.82;100.00
6524;BME280;3295;38.928;-77.052;2022-12-07T04:07:01;101540.09;;;13.84;100.00
6524;BME280;3295;38.928;-77.052;2022-12-07T04:09:29;101541.72;;;13.82;100.00
6524;BME280;3295;38.928;-77.052;2022-12-07T04:11:57;101541.63;;;13.81;100.00
6524;BME280;3295;38.928;-77.052;2022-12-07T04:14:25;101547.31;;;13.74;100.00
6524;BME280;3295;38.928;-77.052;2022-12-07T04:16:54;101553.66;;;13.82;100.00
6524;BME280;3295;38.928;-77.052;2022-12-07T04:19:26;101547.88;;;13.86;100.00
6524;BME280;3295;38.928;-77.052;2022-12-07T04:21:54;101548.84;;;13.88;100.00
6524;BME280;3295;38.928;-77.052;2022-12-07T04:24:22;101545.47;;;13.89;100.00
6524;BME280;3295;38.928;-77.052;2022-12-07T04:26:50;101544.50;;;13.87;100.00
6524;BME280;3295;38.928;-77.052;2022-12-07T04:29:19;101546.13;;;13.85;100.00
6524;BME280;3295;38.928;-77.052;2022-12-07T04:31:47;101539.22;;;13.84;100.00
6524;BME280;3295;38.928;-77.052;2022-12-07T04:34:15;101534.91;;;13.83;100.00
6524;BME280;3295;38.928;-77.052;2022-12-07T04:36:46;101536.66;;;13.84;100.00
6524;BME280;3295;38.928;-77.052;2022-12-07T04:39:19;101535.88;;;13.85;100.00
6524;BME280;3295;38.928;-77.052;2022-12-07T04:41:47;101530.09;;;13.89;100.00
6524;BME280;3295;38.928;-77.052;2022-12-07T04:44:15;101529.19;;;13.88;100.00
6524;BME280;3295;38.928;-77.052;2022-12-07T04:46:43;101531.69;;;13.87;100.00
6524;BME280;3295;38.928;-77.052;2022-12-07T04:49:12;101523.47;;;13.94;100.00
6524;BME280;3295;38.928;-77.052;2022-12-07T04:51:41;101516.66;;;13.95;100.00
6524;BME280;3295;38.928;-77.052;2022-12-07T04:54:13;101503.78;;;13.93;100.00
6524;BME280;3295;38.928;-77.052;2022-12-07T04:56:43;101506.34;;;13.93;100.00
6524;BME280;3295;38.928;-77.052;2022-12-07T04:59:11;101511.47;;;13.93;100.00
6524;BME280;3295;38.928;-77.052;2022-12-07T05:01:40;101515.66;;;13.91;100.00
6524;BME280;3295;38.928;-77.052;2022-12-07T05:04:08;101525.38;;;13.98;100.00
6524;BME280;3295;38.928;-77.052;2022-12-07T05:06:36;101521.03;;;13.97;100.00
6524;BME280;3295;38.928;-77.052;2022-12-07T05:09:04;101518.56;;;13.99;100.00
6524;BME280;3295;38.928;-77.052;2022-12-07T05:11:34;101505.00;;;14.01;100.00
6524;BME280;3295;38.928;-77.052;2022-12-07T05:14:07;101505.00;;;14.01;100.00
6524;BME280;3295;38.928;-77.052;2022-12-07T05:16:36;101499.88;;;14.01;100.00
6524;BME280;3295;38.928;-77.052;2022-12-07T05:19:04;101497.31;;;14.01;100.00
6524;BME280;3295;38.928;-77.052;2022-12-07T05:21:32;101503.25;;;14.00;100.00
6524;BME280;3295;38.928;-77.052;2022-12-07T05:24:01;101509.03;;;13.96;100.00
6524;BME280;3295;38.928;-77.052;2022-12-07T05:26:29;101511.59;;;13.96;100.00
6524;BME280;3295;38.928;-77.052;2022-12-07T05:28:59;101515.13;;;13.98;100.00
6524;BME280;3295;38.928;-77.052;2022-12-07T05:31:27;101511.59;;;13.96;100.00
6524;BME280;3295;38.928;-77.052;2022-12-07T05:33:58;101522.16;;;14.02;100.00
6524;BME280;3295;38.928;-77.052;2022-12-07T05:36:25;101506.47;;;13.96;100.00
6524;BME280;3295;38.928;-77.052;2022-12-07T05:38:54;101520.09;;;13.95;100.00
6524;BME280;3295;38.928;-77.052;2022-12-07T05:41:22;101506.53;;;13.98;100.00
6524;BME280;3295;38.928;-77.052;2022-12-07T05:44:09;101512.63;;;14.00;100.00
6524;BME280;3295;38.928;-77.052;2022-12-07T05:46:37;101516.88;;;13.99;100.00
6524;BME280;3295;38.928;-77.052;2022-12-07T05:49:05;101509.84;;;13.95;100.00
6524;BME280;3295;38.928;-77.052;2022-12-07T05:51:33;101520.09;;;13.95;100.00
6524;BME280;3295;38.928;-77.052;2022-12-07T05:54:01;101522.81;;;13.98;100.00
6524;BME280;3295;38.928;-77.052;2022-12-07T05:56:29;101516.88;;;13.99;100.00
6524;BME280;3295;38.928;-77.052;2022-12-07T05:58:57;101523.91;;;14.03;100.00
6524;BME280;3295;38.928;-77.052;2022-12-07T06:01:44;101532.41;;;14.02;100.00
6524;BME280;3295;38.928;-77.052;2022-12-07T06:04:12;101537.53;;;14.02;100.00
6524;BME280;3295;38.928;-77.052;2022-12-07T06:06:40;101537.00;;;14.09;100.00
6524;BME280;3295;38.928;-77.052;2022-12-07T06:09:08;101538.03;;;14.13;100.00
6524;BME280;3295;38.928;-77.052;2022-12-07T06:11:38;101535.47;;;14.13;100.00
6524;BME280;3295;38.928;-77.052;2022-12-07T06:14:23;101527.91;;;14.16;100.00
6524;BME280;3295;38.928;-77.052;2022-12-07T06:16:52;101529.84;;;14.21;100.00
6524;BME280;3295;38.928;-77.052;2022-12-07T06:19:20;101515.41;;;14.23;100.00
6524;BME280;3295;38.928;-77.052;2022-12-07T06:21:48;101510.22;;;14.22;100.00
6524;BME280;3295;38.928;-77.052;2022-12-07T06:24:17;101494.16;;;14.26;100.00
6524;BME280;3295;38.928;-77.052;2022-12-07T06:26:49;101494.22;;;14.28;100.00
6524;BME280;3295;38.928;-77.052;2022-12-07T06:29:17;101494.97;;;14.25;100.00
6524;BME280;3295;38.928;-77.052;2022-12-07T06:31:45;101496.41;;;14.18;100.00
6524;BME280;3295;38.928;-77.052;2022-12-07T06:34:17;101505.97;;;14.22;100.00
6524;BME280;3295;38.928;-77.052;2022-12-07T06:36:46;101502.59;;;14.23;100.00
6524;BME280;3295;38.928;-77.052;2022-12-07T06:39:17;101502.81;;;14.28;100.00
6524;BME280;3295;38.928;-77.052;2022-12-07T06:41:45;101511.47;;;14.30;100.00
6524;BME280;3295;38.928;-77.052;2022-12-07T06:44:13;101519.81;;;14.26;100.00
6524;BME280;3295;38.928;-77.052;2022-12-07T06:46:41;101518.41;;;14.33;100.00
6524;BME280;3295;38.928;-77.052;2022-12-07T06:49:09;101520.19;;;14.34;100.00
6524;BME280;3295;38.928;-77.052;2022-12-07T06:51:38;101526.38;;;14.39;100.00
6524;BME280;3295;38.928;-77.052;2022-12-07T06:54:08;101520.28;;;14.37;100.00
6524;BME280;3295;38.928;-77.052;2022-12-07T06:56:49;101506.53;;;14.35;100.00
6524;BME280;3295;38.928;-77.052;2022-12-07T06:59:17;101511.69;;;14.35;100.00
6524;BME280;3295;38.928;-77.052;2022-12-07T07:01:45;101516.03;;;14.37;100.00
6524;BME280;3295;38.928;-77.052;2022-12-07T07:04:13;101513.53;;;14.39;100.00
6524;BME280;3295;38.928;-77.052;2022-12-07T07:06:42;101506.97;;;14.44;100.00
6524;BME280;3295;38.928;-77.052;2022-12-07T07:09:13;101517.25;;;14.44;100.00
6524;BME280;3295;38.928;-77.052;2022-12-07T07:11:41;101508.59;;;14.42;100.00
6524;BME280;3295;38.928;-77.052;2022-12-07T07:14:09;101499.28;;;14.44;100.00
6524;BME280;3295;38.928;-77.052;2022-12-07T07:16:37;101492.47;;;14.44;100.00
6524;BME280;3295;38.928;-77.052;2022-12-07T07:19:05;101489.16;;;14.47;100.00
6524;BME280;3295;38.928;-77.052;2022-12-07T07:21:33;101499.50;;;14.48;100.00
6524;BME280;3295;38.928;-77.052;2022-12-07T07:24:02;101493.34;;;14.45;100.00
6524;BME280;3295;38.928;-77.052;2022-12-07T07:26:30;101499.19;;;14.42;100.00
6524;BME280;3295;38.928;-77.052;2022-12-07T07:28:58;101488.06;;;14.42;100.00
6524;BME280;3295;38.928;-77.052;2022-12-07T07:31:26;101490.44;;;14.39;100.00
6524;BME280;3295;38.928;-77.052;2022-12-07T07:33:53;101493.19;;;14.42;100.00
6524;BME280;3295;38.928;-77.052;2022-12-07T07:36:21;101487.50;;;14.49;100.00
6524;BME280;3295;38.928;-77.052;2022-12-07T07:38:49;101486.00;;;14.35;100.00
6524;BME280;3295;38.928;-77.052;2022-12-07T07:41:19;101491.44;;;14.41;100.00
6524;BME280;3295;38.928;-77.052;2022-12-07T07:43:46;101490.06;;;14.49;100.00
6524;BME280;3295;38.928;-77.052;2022-12-07T07:46:14;101481.44;;;14.47;100.00
6524;BME280;3295;38.928;-77.052;2022-12-07T07:48:42;101485.78;;;14.48;100.00
6524;BME280;3295;38.928;-77.052;2022-12-07T07:51:10;101492.72;;;14.50;100.00
6524;BME280;3295;38.928;-77.052;2022-12-07T07:53:38;101481.56;;;14.50;100.00
6524;BME280;3295;38.928;-77.052;2022-12-07T07:56:06;101478.19;;;14.51;100.00
6524;BME280;3295;38.928;-77.052;2022-12-07T07:58:35;101481.97;;;14.59;100.00
6524;BME280;3295;38.928;-77.052;2022-12-07T08:01:05;101488.88;;;14.60;100.00
6524;BME280;3295;38.928;-77.052;2022-12-07T08:03:34;101480.34;;;14.61;100.00
6524;BME280;3295;38.928;-77.052;2022-12-07T08:06:02;101482.94;;;14.61;100.00
6524;BME280;3295;38.928;-77.052;2022-12-07T08:08:30;101481.25;;;14.62;100.00
6524;BME280;3295;38.928;-77.052;2022-12-07T08:10:59;101483.09;;;14.66;100.00
6524;BME280;3295;38.928;-77.052;2022-12-07T08:13:27;101470.34;;;14.67;100.00
6524;BME280;3295;38.928;-77.052;2022-12-07T08:15:57;101475.47;;;14.67;100.00
6524;BME280;3295;38.928;-77.052;2022-12-07T08:18:25;101470.41;;;14.69;100.00
6524;BME280;3295;38.928;-77.052;2022-12-07T08:20:59;101477.22;;;14.68;100.00
6524;BME280;3295;38.928;-77.052;2022-12-07T08:23:27;101474.53;;;14.65;100.00
6524;BME280;3295;38.928;-77.052;2022-12-07T08:25:55;101468.72;;;14.69;100.00
6524;BME280;3295;38.928;-77.052;2022-12-07T08:28:27;101463.44;;;14.66;100.00
6524;BME280;3295;38.928;-77.052;2022-12-07T08:31:03;101458.31;;;14.66;100.00
6524;BME280;3295;38.928;-77.052;2022-12-07T08:33:40;101448.19;;;14.69;100.00
6524;BME280;3295;38.928;-77.052;2022-12-07T08:36:11;101441.28;;;14.68;100.00
6524;BME280;3295;38.928;-77.052;2022-12-07T08:38:40;101448.91;;;14.67;100.00
6524;BME280;3295;38.928;-77.052;2022-12-07T08:41:08;101437.91;;;14.69;100.00
6524;BME280;3295;38.928;-77.052;2022-12-07T08:43:36;101435.28;;;14.68;100.00
6524;BME280;3295;38.928;-77.052;2022-12-07T08:46:10;101427.63;;;14.69;100.00
6524;BME280;3295;38.928;-77.052;2022-12-07T08:48:43;101430.06;;;14.66;100.00
6524;BME280;3295;38.928;-77.052;2022-12-07T08:51:12;101430.22;;;14.69;100.00
6524;BME280;3295;38.928;-77.052;2022-12-07T08:53:40;101428.38;;;14.67;100.00
6524;BME280;3295;38.928;-77.052;2022-12-07T08:56:08;101430.22;;;14.69;100.00
6524;BME280;3295;38.928;-77.052;2022-12-07T08:58:37;101427.78;;;14.72;100.00
6524;BME280;3295;38.928;-77.052;2022-12-07T09:01:07;101432.34;;;14.79;100.00
6524;BME280;3295;38.928;-77.052;2022-12-07T09:03:35;101424.50;;;14.76;100.00
6524;BME280;3295;38.928;-77.052;2022-12-07T09:06:03;101421.19;;;14.79;100.00
6524;BME280;3295;38.928;-77.052;2022-12-07T09:08:34;101427.25;;;14.81;100.00
6524;BME280;3295;38.928;-77.052;2022-12-07T09:11:05;101422.78;;;14.75;100.00
6524;BME280;3295;38.928;-77.052;2022-12-07T09:13:35;101426.16;;;14.74;100.00
6524;BME280;3295;38.928;-77.052;2022-12-07T09:16:03;101423.44;;;14.71;100.00
6524;BME280;3295;38.928;-77.052;2022-12-07T09:18:33;101427.25;;;14.81;100.00
6524;BME280;3295;38.928;-77.052;2022-12-07T09:21:01;101418.94;;;14.86;100.00
6524;BME280;3295;38.928;-77.052;2022-12-07T09:23:28;101419.50;;;14.79;100.00
6524;BME280;3295;38.928;-77.052;2022-12-07T09:25:59;101434.38;;;14.86;100.00
6524;BME280;3295;38.928;-77.052;2022-12-07T09:28:30;101443.03;;;14.90;100.00
6524;BME280;3295;38.928;-77.052;2022-12-07T09:31:01;101439.63;;;14.89;100.00
6524;BME280;3295;38.928;-77.052;2022-12-07T09:33:32;101441.63;;;14.97;100.00
6524;BME280;3295;38.928;-77.052;2022-12-07T09:36:00;101428.91;;;15.00;100.00
6524;BME280;3295;38.928;-77.052;2022-12-07T09:38:28;101434.06;;;15.00;100.00
6524;BME280;3295;38.928;-77.052;2022-12-07T09:41:04;101427.16;;;14.99;100.00
6524;BME280;3295;38.928;-77.052;2022-12-07T09:43:35;101434.06;;;15.00;100.00
6524;BME280;3295;38.928;-77.052;2022-12-07T09:46:05;101418.63;;;15.00;100.00
6524;BME280;3295;38.928;-77.052;2022-12-07T09:48:36;101404.72;;;14.94;100.00
6524;BME280;3295;38.928;-77.052;2022-12-07T09:51:14;101393.28;;;14.86;100.00
6524;BME280;3295;38.928;-77.052;2022-12-07T09:53:42;101394.91;;;14.84;100.00
6524;BME280;3295;38.928;-77.052;2022-12-07T09:56:13;101401.53;;;14.79;100.00
6524;BME280;3295;38.928;-77.052;2022-12-07T09:58:42;101390.94;;;14.72;100.00
6524;BME280;3295;38.928;-77.052;2022-12-07T10:01:12;101409.09;;;14.76;100.00
6524;BME280;3295;38.928;-77.052;2022-12-07T10:03:47;101416.75;;;14.75;100.00
6524;BME280;3295;38.928;-77.052;2022-12-07T10:06:16;101419.00;;;14.67;100.00
6524;BME280;3295;38.928;-77.052;2022-12-07T10:08:44;101419.00;;;14.67;100.00
6524;BME280;3295;38.928;-77.052;2022-12-07T10:11:12;101417.50;;;14.72;100.00
6524;BME280;3295;38.928;-77.052;2022-12-07T10:13:43;101409.00;;;14.73;100.00
6524;BME280;3295;38.928;-77.052;2022-12-07T10:16:32;101410.97;;;14.80;100.00
6524;BME280;3295;38.928;-77.052;2022-12-07T12:16:44;101451.84;;;15.16;100.00
6524;BME280;3295;38.928;-77.052;2022-12-07T12:19:22;101449.28;;;15.16;100.00
6524;BME280;3295;38.928;-77.052;2022-12-07T12:21:56;101443.44;;;15.20;100.00
6524;BME280;3295;38.928;-77.052;2022-12-07T12:24:27;101455.53;;;15.22;100.00
6524;BME280;3295;38.928;-77.052;2022-12-07T12:27:01;101476.28;;;15.27;100.00
6524;BME280;3295;38.928;-77.052;2022-12-07T12:29:35;101493.69;;;15.34;100.00
6524;BME280;3295;38.928;-77.052;2022-12-07T12:32:15;101494.56;;;15.35;100.00
6524;BME280;3295;38.928;-77.052;2022-12-07T12:35:00;101512.63;;;15.36;100.00
6524;BME280;3295;38.928;-77.052;2022-12-07T12:37:44;101499.09;;;15.40;100.00
6524;BME280;3295;38.928;-77.052;2022-12-07T12:40:38;101506.00;;;15.41;100.00
6524;BME280;3295;38.928;-77.052;2022-12-07T12:46:47;101509.38;;;15.40;100.00
6524;BME280;3295;38.928;-77.052;2022-12-07T12:52:58;101487.94;;;15.40;100.00
6524;BME280;3295;38.928;-77.052;2022-12-07T12:55:53;101489.41;;;15.35;100.00
6524;BME280;3295;38.928;-77.052;2022-12-07T12:58:33;101475.56;;;15.31;100.00
6524;BME280;3295;38.928;-77.052;2022-12-07T13:01:40;101474.66;;;15.29;100.00
6524;BME280;3295;38.928;-77.052;2022-12-07T13:04:24;101479.91;;;15.32;100.00
6524;BME280;3295;38.928;-77.052;2022-12-07T13:06:53;101511.75;;;15.36;100.00
6524;BME280;3295;38.928;-77.052;2022-12-07T13:09:23;101523.56;;;15.31;100.00
6524;BME280;3295;38.928;-77.052;2022-12-07T13:11:58;101514.25;;;15.34;100.00
6524;BME280;3295;38.928;-77.052;2022-12-07T13:14:55;101524.78;;;15.40;100.00
6524;BME280;3295;38.928;-77.052;2022-12-07T13:18:04;101509.72;;;15.49;100.00
6524;BME280;3295;38.928;-77.052;2022-12-07T13:20:53;101512.63;;;15.36;100.00
6524;BME280;3295;38.928;-77.052;2022-12-07T13:23:27;101493.81;;;15.37;100.00
6524;BME280;3295;38.928;-77.052;2022-12-07T13:26:13;101513.94;;;15.47;100.00
6524;BME280;3295;38.928;-77.052;2022-12-07T13:28:49;101513.13;;;15.48;100.00
6524;BME280;3295;38.928;-77.052;2022-12-07T13:31:34;101515.16;;;15.55;100.00
6524;BME280;3295;38.928;-77.052;2022-12-07T13:34:03;101505.25;;;15.44;100.00
6524;BME280;3295;38.928;-77.052;2022-12-07T13:36:37;101506.34;;;15.50;100.00
6524;BME280;3295;38.928;-77.052;2022-12-07T13:39:18;101490.50;;;15.60;100.00
6524;BME280;3295;38.928;-77.052;2022-12-07T13:41:50;101482.91;;;15.63;100.00
6524;BME280;3295;38.928;-77.052;2022-12-07T13:44:20;101462.22;;;15.60;100.00
6524;BME280;3295;38.928;-77.052;2022-12-07T13:47:00;101462.94;;;15.56;100.00
6524;BME280;3295;38.928;-77.052;2022-12-07T13:49:36;101480.75;;;15.53;100.00
6524;BME280;3295;38.928;-77.052;2022-12-07T13:52:20;101509.84;;;15.52;100.00
6524;BME280;3295;38.928;-77.052;2022-12-07T13:54:58;101517.63;;;15.54;100.00
6524;BME280;3295;38.928;-77.052;2022-12-07T13:57:44;101516.63;;;15.50;100.00
6524;BME280;3295;38.928;-77.052;2022-12-07T14:00:16;101484.53;;;15.61;100.00
6524;BME280;3295;38.928;-77.052;2022-12-07T14:02:55;101484.47;;;15.60;100.00
6524;BME280;3295;38.928;-77.052;2022-12-07T14:05:27;101486.41;;;15.45;100.00
6524;BME280;3295;38.928;-77.052;2022-12-07T14:07:58;101496.13;;;15.52;100.00
6524;BME280;3295;38.928;-77.052;2022-12-07T14:10:27;101491.44;;;15.62;100.00
6524;BME280;3295;38.928;-77.052;2022-12-07T14:13:01;101482.53;;;15.54;100.00
6524;BME280;3295;38.928;-77.052;2022-12-07T14:15:31;101497.94;;;15.54;100.00
6524;BME280;3295;38.928;-77.052;2022-12-07T14:18:01;101493.06;;;15.60;100.00
6524;BME280;3295;38.928;-77.052;2022-12-07T14:20:32;101488.19;;;15.67;100.00
6524;BME280;3295;38.928;-77.052;2022-12-07T14:23:02;101496.63;;;15.64;100.00
6524;BME280;3295;38.928;-77.052;2022-12-07T14:25:45;101502.78;;;15.68;100.00
6524;BME280;3295;38.928;-77.052;2022-12-07T14:28:25;101512.31;;;15.70;100.00
6524;BME280;3295;38.928;-77.052;2022-12-07T14:30:53;101507.13;;;15.69;100.00
6524;BME280;3295;38.928;-77.052;2022-12-07T14:33:21;101515.78;;;15.71;100.00
6524;BME280;3295;38.928;-77.052;2022-12-07T14:35:50;101526.88;;;15.70;100.00
6524;BME280;3295;38.928;-77.052;2022-12-07T14:38:22;101530.06;;;15.64;100.00
6524;BME280;3295;38.928;-77.052;2022-12-07T14:40:50;101536.16;;;15.66;100.00
6524;BME280;3295;38.928;-77.052;2022-12-07T14:43:19;101540.78;;;15.75;100.00
6524;BME280;3295;38.928;-77.052;2022-12-07T14:45:47;101544.94;;;15.71;100.00
6524;BME280;3295;38.928;-77.052;2022-12-07T14:48:15;101564.66;;;15.72;100.00
6524;BME280;3295;38.928;-77.052;2022-12-07T14:50:49;101543.22;;;15.72;100.00
6524;BME280;3295;38.928;-77.052;2022-12-07T14:53:20;101532.03;;;15.70;100.00
6524;BME280;3295;38.928;-77.052;2022-12-07T14:55:52;101533.53;;;15.64;100.00
6524;BME280;3295;38.928;-77.052;2022-12-07T14:58:20;101531.06;;;15.68;100.00
6524;BME280;3295;38.928;-77.052;2022-12-07T15:00:48;101532.78;;;15.67;100.00
6524;BME280;3295;38.928;-77.052;2022-12-07T15:03:16;101510.38;;;15.64;100.00
6524;BME280;3295;38.928;-77.052;2022-12-07T15:05:44;101506.25;;;15.68;100.00
6524;BME280;3295;38.928;-77.052;2022-12-07T15:08:13;101515.78;;;15.71;100.00
6524;BME280;3295;38.928;-77.052;2022-12-07T15:10:43;101508.50;;;15.60;100.00
6524;BME280;3295;38.928;-77.052;2022-12-07T15:13:15;101520.41;;;15.58;100.00
6524;BME280;3295;38.928;-77.052;2022-12-07T15:16:00;101521.34;;;15.60;100.00
6524;BME280;3295;38.928;-77.052;2022-12-07T15:18:28;101509.22;;;15.56;100.00